Peshawar Weather



Peshawar's Current Weather

Temprature 25.08o haze

haze

Rain: 0 %

Min Temprature25.08o
Max Temprature25.08o
Humidity69
Wind Speed4.12 m/h
Sun Rise06:04:12
Sun Set18:06:03
Current Time: 26-Sep-2022 07:37:01
Lat/Lon: 34.008, 71.5785




Peshawar's Geo Location



Peshawar's Weather Forecast

Time Overall Temp Min Temp Max Temp Humidity Wind Speed Rain
26-Sep-2022 (Mon)
08:00:00 light rain 25.080 24.600 25.080 69 0.79 m/h 16 %
11:00:00 broken clouds 26.340 26.340 28.870 64 0.98 m/h 0 %
14:00:00 scattered clouds 29.650 29.650 31.930 49 1.88 m/h 0 %
17:00:00 clear sky 32.080 32.080 32.080 40 2.93 m/h 0 %
20:00:00 clear sky 28.750 28.750 28.750 54 2.22 m/h 0 %
23:00:00 clear sky 27.740 27.740 27.740 58 1.55 m/h 0 %
27-Sep-2022 (Tue)
02:00:00 clear sky 26.390 26.390 26.390 62 1.26 m/h 0 %
05:00:00 clear sky 25.630 25.630 25.630 64 1.09 m/h 0 %
08:00:00 clear sky 26.680 26.680 26.680 60 1.41 m/h 0 %
11:00:00 clear sky 30.500 30.500 30.500 46 1.54 m/h 0 %
14:00:00 clear sky 33.550 33.550 33.550 31 2.38 m/h 0 %
17:00:00 clear sky 33.070 33.070 33.070 35 4.25 m/h 0 %
20:00:00 clear sky 29.420 29.420 29.420 51 2.5 m/h 0 %
23:00:00 clear sky 28.200 28.200 28.200 55 1.38 m/h 0 %
28-Sep-2022 (Wed)
02:00:00 clear sky 27.230 27.230 27.230 59 1.13 m/h 0 %
05:00:00 clear sky 26.280 26.280 26.280 62 1.3 m/h 0 %
08:00:00 clear sky 27.330 27.330 27.330 57 1.08 m/h 0 %
11:00:00 clear sky 30.770 30.770 30.770 46 1.94 m/h 0 %
14:00:00 clear sky 33.350 33.350 33.350 38 2.55 m/h 0 %
17:00:00 light rain 28.600 28.600 28.600 57 2.99 m/h 155 %
20:00:00 few clouds 28.790 28.790 28.790 53 1.03 m/h 0 %
23:00:00 light rain 27.220 27.220 27.220 58 1.72 m/h 53 %
29-Sep-2022 (Thu)
02:00:00 light rain 25.430 25.430 25.430 67 1.37 m/h 136 %
05:00:00 light rain 24.560 24.560 24.560 70 0.19 m/h 109 %
08:00:00 light rain 26.400 26.400 26.400 61 1.26 m/h 20 %
11:00:00 clear sky 29.860 29.860 29.860 48 2.04 m/h 0 %
14:00:00 clear sky 32.750 32.750 32.750 38 2.38 m/h 0 %
17:00:00 clear sky 32.400 32.400 32.400 41 4.16 m/h 0 %
20:00:00 light rain 28.570 28.570 28.570 54 1.7 m/h 52 %
23:00:00 light rain 27.740 27.740 27.740 57 1.34 m/h 19 %
30-Sep-2022 (Fri)
02:00:00 light rain 26.410 26.410 26.410 62 1.03 m/h 42 %
05:00:00 clear sky 26.110 26.110 26.110 62 0.73 m/h 0 %
08:00:00 clear sky 27.250 27.250 27.250 57 1.59 m/h 0 %
11:00:00 clear sky 30.690 30.690 30.690 45 2.13 m/h 0 %
14:00:00 clear sky 33.370 33.370 33.370 36 2.41 m/h 0 %
17:00:00 clear sky 32.930 32.930 32.930 39 4.43 m/h 0 %
20:00:00 clear sky 29.960 29.960 29.960 48 1.84 m/h 0 %
23:00:00 clear sky 28.850 28.850 28.850 52 1.02 m/h 0 %
01-Oct-2022 (Sat)
02:00:00 clear sky 27.800 27.800 27.800 54 0.83 m/h 0 %
05:00:00 clear sky 26.880 26.880 26.880 57 1.06 m/h 0 %

Famous Cities (61)